Hartford, Connecticut
Traffic Map
Current Weather Conditions
Hartford, Connecticut
Overcast
Overcast
51°
Feels Like: 51°
Wind Chill: 51° Ceiling: 2300
Heat Index: 51° Visibility: 10mi
Dew Point: 43° Wind: 6mph
Humidity: 74% Direction: 30° (NNE)
Pressure: 29.72in Gusts: 0mph
Raw Report DataKHFD 060853Z AUTO 03005KT 10SM OVC023 11/06 A2972 RMK AO2 SLP062 T01060061 53010
Traffic Incident Summary
Active as of:
Severity:
Category:
InformationThere was an issue retrieving the traffic information for this location. Please try a different location or try again shortly.
Advertisements
Track Severe Weather on mobile